Time;durP1;ratioP1;P1;durP2;ratioP2;P2;SDS_P1;SDS_P2;PMS_P1;PMS_P2;Temp;Humidity;BMP_temperature;BMP_pressure;BME280_temperature;BME280_humidity;BME280_pressure;Samples;Min_cycle;Max_cycle;Signal;HPM_P1;HPM_P2
2023/11/16 00:00:13;;;;;;;6.05;2.85;;;22.50;57.20;;;;;;6050542;23;92232;-90
2023/11/16 00:02:41;;;;;;;7.55;3.15;;;22.50;57.20;;;;;;6064230;23;92615;-90
2023/11/16 00:05:11;;;;;;;7.22;2.60;;;22.50;57.20;;;;;;6052758;23;95476;-90
2023/11/16 00:07:38;;;;;;;5.78;2.70;;;22.40;57.10;;;;;;6065135;23;94838;-91
2023/11/16 00:10:04;;;;;;;5.57;3.28;;;22.40;57.30;;;;;;6092007;23;91956;-91
2023/11/16 00:12:30;;;;;;;7.07;3.35;;;22.40;57.40;;;;;;6063705;23;92388;-90
2023/11/16 00:14:58;;;;;;;5.90;3.13;;;22.40;57.40;;;;;;6062288;23;93524;-90
2023/11/16 00:17:24;;;;;;;5.95;2.58;;;22.40;57.30;;;;;;6063094;23;94497;-90
2023/11/16 00:19:49;;;;;;;6.95;2.75;;;22.40;57.20;;;;;;6062016;23;92437;-90
2023/11/16 00:22:15;;;;;;;5.97;3.15;;;22.40;57.30;;;;;;6090877;23;91645;-90
2023/11/16 00:24:40;;;;;;;4.05;2.38;;;22.30;57.30;;;;;;6060797;23;95596;-90
2023/11/16 00:27:14;;;;;;;5.10;2.80;;;22.30;57.20;;;;;;6061671;23;95019;-89
2023/11/16 00:29:39;;;;;;;5.70;2.80;;;22.30;57.30;;;;;;6063017;23;93061;-90
2023/11/16 00:32:05;;;;;;;5.03;2.78;;;22.30;57.50;;;;;;6088179;23;92692;-90
2023/11/16 00:34:31;;;;;;;8.45;3.10;;;22.20;57.40;;;;;;6090677;23;94552;-90
2023/11/16 00:36:56;;;;;;;6.47;2.92;;;22.20;57.30;;;;;;6062381;23;95345;-90
2023/11/16 00:39:22;;;;;;;5.97;2.50;;;22.20;57.40;;;;;;6062151;23;92944;-90
2023/11/16 00:41:48;;;;;;;6.80;2.70;;;22.20;57.50;;;;;;6062062;23;92900;-90
2023/11/16 00:44:19;;;;;;;5.85;2.55;;;22.20;57.40;;;;;;6050189;23;95819;-90
2023/11/16 00:46:48;;;;;;;5.10;2.58;;;22.20;57.50;;;;;;6063362;23;93929;-90
2023/11/16 00:49:14;;;;;;;5.15;2.30;;;22.20;57.50;;;;;;6061686;23;92477;-90
2023/11/16 00:51:40;;;;;;;4.68;2.20;;;22.20;57.50;;;;;;6073285;23;92552;-91
2023/11/16 00:54:05;;;;;;;5.18;2.72;;;22.10;57.40;;;;;;6057527;23;96635;-90
2023/11/16 00:56:31;;;;;;;6.63;2.80;;;22.10;57.50;;;;;;6046885;23;96433;-91
2023/11/16 00:58:57;;;;;;;5.32;2.55;;;22.10;57.50;;;;;;6088558;23;93032;-90
2023/11/16 01:01:22;;;;;;;4.65;2.65;;;22.10;57.40;;;;;;6089833;23;92894;-90
2023/11/16 01:03:49;;;;;;;9.35;2.50;;;22.10;57.40;;;;;;6088211;23;92667;-90
2023/11/16 01:06:15;;;;;;;4.05;2.05;;;22.10;57.70;;;;;;6063464;23;94857;-91
2023/11/16 01:08:50;;;;;;;5.85;2.25;;;22.10;57.70;;;;;;6089068;23;92872;-91
2023/11/16 01:11:16;;;;;;;3.70;2.22;;;22.00;57.60;;;;;;6063585;23;91823;-90
2023/11/16 01:13:42;;;;;;;6.35;2.63;;;22.00;57.50;;;;;;6086515;23;92681;-90
2023/11/16 01:16:17;;;;;;;5.07;3.10;;;22.10;57.50;;;;;;6063359;23;95488;-91
2023/11/16 01:18:50;;;;;;;4.82;2.60;;;22.00;57.30;;;;;;6061366;23;93503;-90
2023/11/16 01:21:17;;;;;;;5.18;2.42;;;22.00;57.50;;;;;;6089934;23;92394;-91
2023/11/16 01:23:45;;;;;;;5.50;2.83;;;22.00;57.50;;;;;;6061657;23;95305;-90
2023/11/16 01:26:15;;;;;;;5.38;2.35;;;22.00;57.60;;;;;;6088202;23;92304;-90
2023/11/16 01:28:58;;;;;;;4.45;2.58;;;22.00;57.60;;;;;;6063443;23;92507;-90
2023/11/16 01:31:24;;;;;;;4.82;2.53;;;21.90;57.50;;;;;;6062988;23;92885;-91
2023/11/16 01:33:50;;;;;;;4.60;2.53;;;21.90;57.50;;;;;;6088702;23;93648;-90
2023/11/16 01:36:19;;;;;;;4.25;2.28;;;21.90;57.50;;;;;;6063274;23;95325;-90
2023/11/16 01:38:47;;;;;;;4.28;2.53;;;21.90;57.60;;;;;;6063603;23;92914;-91
2023/11/16 01:41:14;;;;;;;4.38;3.10;;;21.90;57.60;;;;;;6064216;23;92333;-90
2023/11/16 01:43:40;;;;;;;5.93;2.38;;;21.90;57.60;;;;;;6089724;23;92969;-90
2023/11/16 01:46:06;;;;;;;4.13;2.10;;;21.90;57.60;;;;;;6066294;23;94947;-90
2023/11/16 01:48:34;;;;;;;4.75;2.25;;;21.90;57.60;;;;;;6063450;23;91945;-90
2023/11/16 01:51:05;;;;;;;3.73;2.27;;;21.90;57.50;;;;;;6062658;23;92619;-90
2023/11/16 01:53:39;;;;;;;6.45;2.60;;;21.80;57.80;;;;;;6077431;23;93144;-91
2023/11/16 01:56:08;;;;;;;3.67;2.20;;;21.90;57.50;;;;;;6062613;23;93921;-90
2023/11/16 01:58:37;;;;;;;4.57;2.43;;;21.90;57.50;;;;;;6064213;23;92841;-89
2023/11/16 02:01:04;;;;;;;5.00;2.45;;;21.80;57.40;;;;;;6050897;23;92896;-90
2023/11/16 02:03:31;;;;;;;4.15;2.15;;;21.80;57.30;;;;;;6064678;23;96287;-90
2023/11/16 02:05:59;;;;;;;5.38;2.45;;;21.80;57.40;;;;;;6064986;23;92577;-90
2023/11/16 02:08:24;;;;;;;4.95;2.05;;;21.80;57.40;;;;;;6089704;23;93670;-91
2023/11/16 02:10:51;;;;;;;5.20;2.85;;;21.80;57.40;;;;;;6089561;23;92445;-90
2023/11/16 02:13:20;;;;;;;4.68;2.38;;;21.80;57.40;;;;;;6088668;23;92796;-90
2023/11/16 02:15:46;;;;;;;;;;;21.80;57.50;;;;;;6062904;23;94628;-91
2023/11/16 02:18:16;;;;;;;4.45;2.22;;;21.80;57.50;;;;;;6091681;23;92341;-90
2023/11/16 02:20:45;;;;;;;3.95;2.30;;;21.80;57.60;;;;;;6064421;23;92531;-90
2023/11/16 02:23:11;;;;;;;4.00;2.20;;;21.80;57.50;;;;;;6060749;23;95741;-90
2023/11/16 02:25:44;;;;;;;4.07;2.42;;;21.70;57.60;;;;;;6062657;23;93992;-90
2023/11/16 02:28:10;;;;;;;4.25;2.28;;;21.70;57.50;;;;;;6089135;23;91927;-90
2023/11/16 02:30:41;;;;;;;4.60;2.35;;;21.70;57.50;;;;;;6088134;23;92310;-89
2023/11/16 02:33:07;;;;;;;3.40;1.75;;;21.70;57.40;;;;;;6062145;23;97209;-91
2023/11/16 02:35:33;;;;;;;3.63;2.00;;;21.70;57.50;;;;;;6087396;23;94464;-89
2023/11/16 02:38:00;;;;;;;3.35;2.13;;;21.70;57.60;;;;;;6063065;23;92397;-91
2023/11/16 02:40:29;;;;;;;5.15;2.50;;;21.70;57.60;;;;;;6089739;23;92647;-90
2023/11/16 02:42:55;;;;;;;4.00;1.98;;;21.70;57.70;;;;;;6061860;23;95692;-91
2023/11/16 02:45:22;;;;;;;4.05;2.30;;;21.70;57.80;;;;;;6060975;23;94097;-90
2023/11/16 02:47:50;;;;;;;4.30;2.15;;;21.60;57.80;;;;;;6087492;23;93405;-91
2023/11/16 02:50:16;;;;;;;2.80;1.90;;;21.60;57.70;;;;;;6046771;23;92154;-90
2023/11/16 02:52:43;;;;;;;3.47;2.28;;;21.60;57.70;;;;;;6087510;23;92952;-91
2023/11/16 02:55:09;;;;;;;4.47;2.30;;;21.60;57.80;;;;;;6087408;23;93072;-89
2023/11/16 02:57:36;;;;;;;3.25;1.90;;;21.60;57.70;;;;;;6058882;23;93311;-91
2023/11/16 03:00:03;;;;;;;5.07;2.17;;;21.60;57.90;;;;;;6085937;23;92610;-90
2023/11/16 03:02:30;;;;;;;3.85;2.10;;;21.60;57.80;;;;;;6089493;23;92738;-90
2023/11/16 03:04:56;;;;;;;3.60;1.98;;;21.60;57.70;;;;;;6061043;23;94143;-90
2023/11/16 03:07:21;;;;;;;4.35;2.08;;;21.60;57.70;;;;;;6063882;23;92685;-90
2023/11/16 03:09:57;;;;;;;4.07;1.88;;;21.60;57.70;;;;;;6063411;23;92592;-90
2023/11/16 03:12:23;;;;;;;3.33;2.08;;;21.50;57.70;;;;;;6060082;23;95441;-91
2023/11/16 03:14:49;;;;;;;2.20;1.67;;;21.60;57.60;;;;;;6087470;23;92454;-90
2023/11/16 03:17:17;;;;;;;4.75;2.05;;;21.60;57.60;;;;;;6090737;22;92532;-90
2023/11/16 03:19:43;;;;;;;3.53;2.10;;;21.50;57.50;;;;;;6061458;23;92259;-91
2023/11/16 03:22:08;;;;;;;3.65;1.80;;;21.60;57.70;;;;;;6062188;23;96654;-90
2023/11/16 03:24:34;;;;;;;4.38;2.40;;;21.50;57.60;;;;;;6087560;23;93542;-90
2023/11/16 03:27:00;;;;;;;3.55;1.98;;;21.50;57.60;;;;;;6087414;23;92017;-91
2023/11/16 03:29:25;;;;;;;3.42;1.98;;;21.50;57.50;;;;;;6060823;23;92669;-90
2023/11/16 03:31:51;;;;;;;3.78;2.10;;;21.50;57.70;;;;;;6060875;23;92720;-91
2023/11/16 03:34:17;;;;;;;3.90;1.98;;;21.50;57.60;;;;;;6088138;23;92718;-91
2023/11/16 03:36:42;;;;;;;2.90;2.00;;;21.50;57.60;;;;;;6087417;23;92402;-91
2023/11/16 03:39:11;;;;;;;4.20;1.92;;;21.50;57.50;;;;;;6088954;23;91589;-90
2023/11/16 03:41:37;;;;;;;4.35;2.40;;;21.50;57.60;;;;;;6062747;23;96667;-90
2023/11/16 03:44:03;;;;;;;3.72;1.83;;;21.50;57.60;;;;;;6061515;23;95076;-91
2023/11/16 03:46:28;;;;;;;2.15;1.73;;;21.50;57.50;;;;;;6061672;23;93194;-90
2023/11/16 03:48:54;;;;;;;4.28;1.75;;;21.50;57.40;;;;;;6049721;23;92764;-88
2023/11/16 03:51:20;;;;;;;3.05;1.83;;;21.50;57.40;;;;;;6061587;23;95728;-90
2023/11/16 03:54:03;;;;;;;5.25;2.47;;;21.50;57.50;;;;;;6062338;23;94396;-90
2023/11/16 03:56:29;;;;;;;2.72;1.75;;;21.40;57.50;;;;;;6061550;23;93346;-90
2023/11/16 03:58:55;;;;;;;2.10;1.55;;;21.40;57.60;;;;;;6046836;23;92517;-90
2023/11/16 04:01:20;;;;;;;4.47;2.35;;;21.40;57.70;;;;;;6061821;23;94135;-91
2023/11/16 04:03:46;;;;;;;2.42;1.60;;;21.40;57.80;;;;;;6063187;23;94960;-91
2023/11/16 04:06:18;;;;;;;3.30;2.00;;;21.40;57.80;;;;;;6089834;23;92421;-90
2023/11/16 04:08:45;;;;;;;3.42;1.92;;;21.40;57.80;;;;;;6061885;23;92581;-90
2023/11/16 04:11:11;;;;;;;3.05;2.10;;;21.40;57.70;;;;;;6062239;23;95841;-91
2023/11/16 04:13:36;;;;;;;2.15;1.20;;;21.40;57.60;;;;;;6062379;23;94893;-91
2023/11/16 04:16:03;;;;;;;3.72;1.75;;;21.40;57.50;;;;;;6088230;23;92647;-91
2023/11/16 04:18:30;;;;;;;3.88;2.13;;;21.40;57.50;;;;;;6060749;23;92614;-90
2023/11/16 04:20:55;;;;;;;3.50;2.00;;;21.30;57.50;;;;;;6087817;23;93096;-91
2023/11/16 04:23:21;;;;;;;2.60;1.88;;;21.30;57.50;;;;;;6060586;23;94533;-90
2023/11/16 04:25:47;;;;;;;3.08;1.85;;;21.30;57.70;;;;;;6086872;23;92222;-90
2023/11/16 04:28:21;;;;;;;3.08;1.90;;;21.30;57.60;;;;;;6064413;23;91811;-90
2023/11/16 04:30:46;;;;;;;4.05;1.88;;;21.40;57.70;;;;;;6061388;23;95717;-90
2023/11/16 04:33:12;;;;;;;2.90;1.60;;;21.30;57.70;;;;;;6061786;23;95098;-90
2023/11/16 04:35:38;;;;;;;2.70;1.60;;;21.30;58.30;;;;;;6061529;23;93193;-90
2023/11/16 04:38:04;;;;;;;2.40;1.45;;;21.30;57.60;;;;;;6088423;23;92659;-90
2023/11/16 04:40:29;;;;;;;2.67;1.60;;;21.30;57.60;;;;;;6062842;23;94988;-90
2023/11/16 04:42:55;;;;;;;2.42;1.55;;;21.30;57.60;;;;;;6061176;23;95463;-91
2023/11/16 04:45:20;;;;;;;3.03;1.33;;;21.30;57.70;;;;;;6063354;23;92578;-91
2023/11/16 04:47:47;;;;;;;2.42;1.48;;;21.30;57.70;;;;;;6089872;23;92613;-90
2023/11/16 04:50:17;;;;;;;2.85;1.75;;;21.30;57.60;;;;;;6047613;23;95649;-91
2023/11/16 04:52:46;;;;;;;3.55;1.80;;;21.20;57.50;;;;;;6063021;23;94044;-90
2023/11/16 04:55:12;;;;;;;3.17;1.83;;;21.30;57.50;;;;;;6064112;23;92709;-90
2023/11/16 04:57:38;;;;;;;3.85;1.63;;;21.20;57.50;;;;;;6048126;23;92364;-90
2023/11/16 05:00:11;;;;;;;2.72;1.63;;;21.20;57.60;;;;;;6062930;23;96531;-90
2023/11/16 05:02:37;;;;;;;2.90;1.70;;;21.20;57.40;;;;;;6062540;23;94764;-90
2023/11/16 05:05:07;;;;;;;2.03;1.38;;;21.20;57.50;;;;;;6088950;23;92385;-91
2023/11/16 05:07:33;;;;;;;3.10;1.63;;;21.20;57.50;;;;;;6061701;23;92480;-91
2023/11/16 05:09:59;;;;;;;2.25;1.40;;;21.20;57.50;;;;;;6061659;23;95576;-90
2023/11/16 05:12:25;;;;;;;3.58;2.00;;;21.20;57.60;;;;;;6090457;23;93131;-90
2023/11/16 05:14:53;;;;;;;2.85;1.55;;;21.20;57.40;;;;;;6087667;23;92685;-90
2023/11/16 05:17:19;;;;;;;3.47;2.33;;;21.20;57.60;;;;;;6062678;23;91802;-91
2023/11/16 05:19:45;;;;;;;1.67;1.20;;;21.20;57.60;;;;;;6060847;23;95714;-90
2023/11/16 05:22:10;;;;;;;3.28;1.65;;;21.20;57.50;;;;;;6061823;23;94790;-91
2023/11/16 05:24:36;;;;;;;4.25;1.70;;;21.20;57.50;;;;;;6062265;23;93479;-90
2023/11/16 05:27:02;;;;;;;2.63;1.45;;;21.20;57.70;;;;;;6090210;23;92617;-90
2023/11/16 05:29:32;;;;;;;2.05;1.58;;;21.20;57.60;;;;;;6062227;23;96037;-91
2023/11/16 05:31:58;;;;;;;2.60;1.50;;;21.20;57.90;;;;;;6088970;23;92661;-91
2023/11/16 05:34:24;;;;;;;2.00;1.40;;;21.10;57.40;;;;;;6062966;23;92400;-90
2023/11/16 05:36:51;;;;;;;3.80;1.60;;;21.20;57.50;;;;;;6087778;23;92719;-90
2023/11/16 05:39:19;;;;;;;1.90;1.50;;;21.10;57.50;;;;;;6062615;23;94414;-89
2023/11/16 05:41:45;;;;;;;2.05;1.40;;;21.10;57.50;;;;;;6063857;23;95337;-91
2023/11/16 05:44:12;;;;;;;3.15;1.50;;;21.10;57.50;;;;;;6064098;23;92571;-90
2023/11/16 05:46:38;;;;;;;2.80;1.92;;;21.10;57.50;;;;;;6087387;22;91161;-90
2023/11/16 05:49:06;;;;;;;3.72;1.98;;;21.10;57.60;;;;;;6088608;22;99812;-90
2023/11/16 05:51:36;;;;;;;2.45;1.40;;;21.10;57.40;;;;;;6112673;22;92233;-90
2023/11/16 05:54:07;;;;;;;2.92;1.63;;;21.10;57.60;;;;;;6074674;22;92138;-90
2023/11/16 05:56:36;;;;;;;1.73;1.30;;;21.10;57.70;;;;;;6086339;23;91861;-91
2023/11/16 05:59:02;;;;;;;;;;;21.10;58.10;;;;;;6065161;22;94608;-90
2023/11/16 06:01:28;;;;;;;2.72;1.70;;;21.10;57.50;;;;;;6102201;23;92713;-90
2023/11/16 06:03:53;;;;;;;2.42;1.50;;;21.10;57.40;;;;;;6074732;23;92413;-91
2023/11/16 06:06:19;;;;;;;2.88;1.52;;;21.10;57.60;;;;;;6053885;23;91798;-90
2023/11/16 06:08:47;;;;;;;3.45;1.75;;;21.10;57.30;;;;;;6062727;23;95807;-89
2023/11/16 06:11:15;;;;;;;2.67;1.37;;;21.10;57.40;;;;;;6062090;23;95591;-90
2023/11/16 06:13:40;;;;;;;2.08;1.30;;;21.00;57.60;;;;;;6087949;23;93444;-90
2023/11/16 06:16:06;;;;;;;2.97;1.58;;;21.10;57.50;;;;;;6093250;23;92550;-90
2023/11/16 06:18:32;;;;;;;2.33;1.50;;;21.00;57.60;;;;;;6067639;23;93885;-90
2023/11/16 06:20:58;;;;;;;2.28;1.52;;;21.00;57.50;;;;;;6069401;23;95147;-91
2023/11/16 06:23:24;;;;;;;2.65;1.50;;;21.00;57.50;;;;;;6097947;23;93407;-90
2023/11/16 06:25:50;;;;;;;3.17;1.55;;;21.00;57.50;;;;;;6073479;23;92567;-90
2023/11/16 06:28:35;;;;;;;3.05;1.70;;;21.00;57.60;;;;;;6100006;23;92809;-90
2023/11/16 06:31:01;;;;;;;2.70;1.63;;;21.00;57.50;;;;;;6069878;23;95136;-89
2023/11/16 06:33:27;;;;;;;2.50;1.40;;;21.00;57.60;;;;;;6096518;23;92447;-90
2023/11/16 06:35:53;;;;;;;2.53;1.30;;;21.00;57.50;;;;;;6097323;23;92371;-91
2023/11/16 06:38:19;;;;;;;1.50;1.30;;;21.00;57.60;;;;;;6067165;23;98330;-91
2023/11/16 06:40:45;;;;;;;2.72;1.50;;;21.00;57.60;;;;;;6066865;23;94677;-90
2023/11/16 06:43:12;;;;;;;2.63;1.45;;;21.00;57.50;;;;;;6068088;23;92997;-90
2023/11/16 06:45:40;;;;;;;2.70;1.40;;;21.00;57.70;;;;;;6092657;23;91850;-90
2023/11/16 06:48:07;;;;;;;1.75;1.20;;;21.00;57.50;;;;;;6065585;23;95611;-90
2023/11/16 06:50:34;;;;;;;1.90;1.00;;;20.90;57.40;;;;;;6067649;23;94062;-91
2023/11/16 06:53:05;;;;;;;2.60;1.20;;;20.90;57.50;;;;;;6094403;23;92355;-91
2023/11/16 06:55:52;;;;;;;2.17;1.45;;;20.90;57.10;;;;;;6096508;23;91252;-90
2023/11/16 06:58:22;;;;;;;3.58;1.42;;;21.00;55.90;;;;;;6067371;23;100009;-91
2023/11/16 07:00:50;;;;;;;1.70;1.02;;;20.90;56.40;;;;;;6067959;23;95344;-88
2023/11/16 07:03:16;;;;;;;2.53;1.40;;;20.90;56.50;;;;;;6053540;23;93188;-90
2023/11/16 07:05:42;;;;;;;3.90;1.70;;;20.90;56.50;;;;;;6067458;23;92430;-90
2023/11/16 07:08:09;;;;;;;1.30;1.05;;;20.90;56.30;;;;;;6066262;23;95202;-91
2023/11/16 07:10:35;;;;;;;3.70;1.35;;;20.90;56.50;;;;;;6067740;23;95056;-91
2023/11/16 07:13:01;;;;;;;1.75;1.13;;;20.90;56.40;;;;;;6067627;23;91896;-90
2023/11/16 07:15:28;;;;;;;2.47;1.30;;;20.90;56.30;;;;;;6066618;23;92350;-91
2023/11/16 07:17:54;;;;;;;2.30;1.42;;;20.90;56.60;;;;;;6093658;23;92106;-90
2023/11/16 07:20:21;;;;;;;2.95;1.33;;;20.80;56.30;;;;;;6066955;23;94109;-91
2023/11/16 07:22:47;;;;;;;3.25;1.23;;;20.90;56.70;;;;;;6093276;23;92492;-90
2023/11/16 07:25:15;;;;;;;2.47;1.48;;;20.90;56.60;;;;;;6065950;23;92539;-90
2023/11/16 07:27:50;;;;;;;2.72;1.60;;;20.80;56.60;;;;;;6065051;23;96600;-92
2023/11/16 07:30:17;;;;;;;3.22;1.52;;;20.80;56.90;;;;;;6066553;23;96195;-91
2023/11/16 07:32:43;;;;;;;2.58;1.50;;;20.90;56.90;;;;;;6066317;23;92504;-91
2023/11/16 07:35:18;;;;;;;2.55;1.70;;;20.90;56.90;;;;;;6065133;23;92557;-92
2023/11/16 07:37:45;;;;;;;4.32;1.40;;;20.90;57.00;;;;;;6090749;23;93733;-91
2023/11/16 07:40:15;;;;;;;3.90;1.60;;;21.00;57.20;;;;;;6066000;23;95022;-92
2023/11/16 07:42:42;;;;;;;3.40;1.23;;;21.00;57.00;;;;;;6090293;23;92458;-90
2023/11/16 07:45:12;;;;;;;3.47;1.65;;;21.00;56.90;;;;;;6063312;23;91230;-89
2023/11/16 07:47:42;;;;;;;4.75;1.70;;;21.10;57.00;;;;;;6064871;23;95715;-90
2023/11/16 07:50:10;;;;;;;2.78;1.50;;;21.10;57.10;;;;;;6065152;23;93949;-90
2023/11/16 07:52:44;;;;;;;3.08;1.80;;;21.10;57.40;;;;;;6066823;23;93250;-89
2023/11/16 07:55:16;;;;;;;2.55;1.40;;;21.20;57.60;;;;;;6089701;23;93161;-89
2023/11/16 07:57:47;;;;;;;3.60;1.30;;;21.20;57.30;;;;;;6090728;23;93436;-89
2023/11/16 08:00:26;;;;;;;2.17;1.30;;;21.20;57.50;;;;;;6060082;23;92399;-88
2023/11/16 08:05:41;;;;;;;4.00;1.38;;;21.20;57.40;;;;;;6088391;23;92727;-88
2023/11/16 08:08:18;;;;;;;2.72;1.33;;;21.20;57.50;;;;;;6088345;23;93205;-89
2023/11/16 08:10:45;;;;;;;3.00;1.50;;;21.20;57.50;;;;;;6061061;23;93919;-88
2023/11/16 08:13:15;;;;;;;2.25;1.35;;;21.20;57.60;;;;;;6089138;23;92320;-88
2023/11/16 08:15:41;;;;;;;3.50;1.58;;;21.20;57.70;;;;;;6088373;23;92724;-90
2023/11/16 08:18:08;;;;;;;18.45;2.10;;;21.20;57.60;;;;;;6085857;23;93805;-88
2023/11/16 08:20:34;;;;;;;4.35;1.60;;;21.20;57.50;;;;;;6071702;23;93881;-88
2023/11/16 08:23:00;;;;;;;4.03;1.33;;;21.20;57.40;;;;;;6060277;23;92144;-88
2023/11/16 08:25:30;;;;;;;3.90;1.75;;;21.30;57.60;;;;;;6082667;23;92539;-87
2023/11/16 08:27:57;;;;;;;3.47;1.10;;;21.30;57.30;;;;;;6053948;23;95053;-89
2023/11/16 08:30:23;;;;;;;2.78;1.52;;;21.20;57.40;;;;;;6057307;23;95614;-89
2023/11/16 08:32:49;;;;;;;1.95;1.42;;;21.30;57.60;;;;;;6058477;23;92532;-88
2023/11/16 08:35:15;;;;;;;2.95;1.30;;;21.20;57.70;;;;;;6059212;23;91627;-88
2023/11/16 08:37:42;;;;;;;2.08;1.38;;;21.20;57.60;;;;;;6082657;23;93626;-86
2023/11/16 08:40:18;;;;;;;4.63;1.50;;;21.30;57.60;;;;;;6084219;23;92654;-86
2023/11/16 08:42:49;;;;;;;4.70;1.60;;;21.30;57.70;;;;;;6083940;23;93932;-88
2023/11/16 08:45:20;;;;;;;3.35;1.50;;;21.30;57.50;;;;;;6081598;23;92041;-88
2023/11/16 08:47:48;;;;;;;2.15;1.20;;;21.30;57.40;;;;;;6055702;23;95042;-87
2023/11/16 08:50:16;;;;;;;1.83;0.95;;;21.30;57.40;;;;;;6056561;23;95278;-87
2023/11/16 08:52:47;;;;;;;3.15;1.60;;;21.40;57.50;;;;;;6061768;23;92431;-86
2023/11/16 08:55:13;;;;;;;2.33;1.20;;;21.30;57.60;;;;;;6064109;23;92515;-88
2023/11/16 08:57:42;;;;;;;4.15;1.25;;;21.40;57.70;;;;;;6074732;23;93382;-86
2023/11/16 09:00:35;;;;;;;1.75;1.38;;;21.50;57.70;;;;;;6087991;23;92096;-88
2023/11/16 09:03:03;;;;;;;1.73;1.13;;;21.50;57.70;;;;;;6072886;23;92222;-88
2023/11/16 09:05:31;;;;;;;3.05;1.05;;;21.50;57.60;;;;;;6088771;23;92590;-88
2023/11/16 09:07:59;;;;;;;3.28;1.30;;;21.50;57.50;;;;;;6060937;23;96397;-88
2023/11/16 09:10:24;;;;;;;2.03;1.25;;;21.50;58.10;;;;;;6062968;23;96135;-89
2023/11/16 09:12:55;;;;;;;4.05;1.40;;;21.50;57.50;;;;;;6089082;23;92149;-86
2023/11/16 09:15:22;;;;;;;1.95;1.33;;;21.60;57.50;;;;;;6088342;23;92529;-94
2023/11/16 09:17:49;;;;;;;3.17;1.55;;;21.60;57.40;;;;;;6061552;23;94604;-88
2023/11/16 09:20:18;;;;;;;2.20;1.45;;;21.60;57.20;;;;;;6063180;23;95141;-88
2023/11/16 09:22:44;;;;;;;3.43;1.40;;;21.50;57.40;;;;;;6063728;23;92393;-88
2023/11/16 09:25:19;;;;;;;3.00;1.30;;;21.50;57.30;;;;;;6091676;23;91779;-88
2023/11/16 09:27:54;;;;;;;9.52;1.27;;;21.50;57.30;;;;;;6064063;23;95506;-89
2023/11/16 09:30:24;;;;;;;1.90;1.23;;;21.50;57.20;;;;;;6089732;23;93760;-86
2023/11/16 09:33:01;;;;;;;1.52;1.00;;;21.60;57.40;;;;;;6090510;23;92887;-86
2023/11/16 09:35:27;;;;;;;2.83;1.60;;;21.60;57.40;;;;;;6088511;23;92388;-87
2023/11/16 09:37:54;;;;;;;1.98;1.35;;;21.60;57.30;;;;;;6063443;23;95987;-88
2023/11/16 09:40:24;;;;;;;4.50;1.75;;;21.60;57.30;;;;;;6089877;23;92373;-88
2023/11/16 09:45:50;;;;;;;1.63;1.10;;;21.60;57.00;;;;;;6042790;23;92835;-90
2023/11/16 09:48:17;;;;;;;4.68;1.92;;;21.60;56.80;;;;;;6051422;23;96279;-88
2023/11/16 09:50:44;;;;;;;4.22;1.95;;;21.60;57.60;;;;;;6061641;23;95432;-87
2023/11/16 09:53:18;;;;;;;4.88;1.02;;;21.70;57.10;;;;;;6060433;23;92671;-88
2023/11/16 09:55:49;;;;;;;3.45;1.38;;;21.60;57.10;;;;;;6060674;23;92420;-88
2023/11/16 09:58:21;;;;;;;1.73;1.17;;;21.70;57.30;;;;;;6087958;23;93831;-95
2023/11/16 10:00:49;;;;;;;6.03;1.55;;;21.70;57.30;;;;;;6071662;23;93770;-88
2023/11/16 10:03:29;;;;;;;8.65;1.35;;;21.70;57.00;;;;;;6089364;23;92400;-88
2023/11/16 10:05:57;;;;;;;7.22;2.17;;;21.70;57.20;;;;;;6049172;23;91995;-87
2023/11/16 10:08:27;;;;;;;11.15;2.55;;;21.70;56.90;;;;;;6062386;23;95646;-89
2023/11/16 10:10:56;;;;;;;6.75;1.92;;;21.70;55.90;;;;;;6046969;23;94096;-89
2023/11/16 10:13:23;;;;;;;;;;;21.70;56.40;;;;;;6065137;23;92687;-89
2023/11/16 10:15:49;;;;;;;5.72;1.70;;;21.70;56.50;;;;;;6062628;23;91187;-89
2023/11/16 10:18:15;;;;;;;7.07;2.17;;;21.70;56.60;;;;;;6046069;23;95471;-89
2023/11/16 10:20:42;;;;;;;4.60;1.92;;;21.70;56.80;;;;;;6061740;23;93863;-89
2023/11/16 10:23:09;;;;;;;7.05;1.50;;;21.70;57.00;;;;;;6062416;23;93672;-90
2023/11/16 10:25:37;;;;;;;3.78;1.52;;;21.70;56.80;;;;;;6090813;23;92386;-89
2023/11/16 10:28:16;;;;;;;7.15;2.00;;;21.70;56.70;;;;;;6061451;23;93600;-90
2023/11/16 10:30:50;;;;;;;;;;;21.70;56.70;;;;;;6063884;23;95659;-89
2023/11/16 10:33:21;;;;;;;3.90;1.92;;;21.70;56.70;;;;;;6065252;23;92753;-87
2023/11/16 10:35:48;;;;;;;4.78;1.88;;;21.70;56.80;;;;;;6090195;23;92461;-88
2023/11/16 10:38:19;;;;;;;4.10;1.80;;;21.70;56.70;;;;;;6088314;23;93046;-90
2023/11/16 10:40:47;;;;;;;7.53;2.20;;;21.70;56.70;;;;;;6089489;23;92577;-88
2023/11/16 10:43:17;;;;;;;7.65;2.20;;;21.70;56.70;;;;;;6064127;23;92448;-89
2023/11/16 10:45:43;;;;;;;3.60;1.67;;;21.70;56.70;;;;;;6064450;23;92518;-89
2023/11/16 10:48:13;;;;;;;4.78;1.63;;;21.80;56.70;;;;;;6089433;23;93518;-88
2023/11/16 10:50:40;;;;;;;8.95;1.98;;;21.80;56.50;;;;;;6062228;23;94308;-90
2023/11/16 10:53:32;;;;;;;4.60;1.90;;;21.80;56.20;;;;;;6066476;23;92578;-93
2023/11/16 10:55:59;;;;;;;6.25;2.03;;;21.80;56.40;;;;;;6045692;23;92260;-93
2023/11/16 10:58:29;;;;;;;6.80;2.10;;;21.80;56.60;;;;;;6065703;23;95444;-91
2023/11/16 11:01:08;;;;;;;6.18;1.85;;;21.80;57.40;;;;;;6066544;23;93613;-91
2023/11/16 11:03:35;;;;;;;8.35;2.05;;;21.80;57.20;;;;;;6052270;23;95073;-92
2023/11/16 11:06:03;;;;;;;6.78;1.90;;;21.80;58.20;;;;;;6065255;23;91311;-92
2023/11/16 11:08:37;;;;;;;7.28;2.08;;;21.80;57.40;;;;;;6048345;23;94274;-90
2023/11/16 11:11:04;;;;;;;6.72;1.55;;;21.80;57.50;;;;;;6063309;23;93973;-92
2023/11/16 11:13:43;;;;;;;8.00;2.25;;;21.80;57.70;;;;;;6063665;23;93092;-90
2023/11/16 11:16:12;;;;;;;5.83;2.40;;;21.80;57.70;;;;;;6072901;23;93264;-95
2023/11/16 11:18:51;;;;;;;4.43;1.67;;;21.80;57.90;;;;;;6038931;23;95747;-89
2023/11/16 11:21:20;;;;;;;6.78;2.22;;;21.80;57.90;;;;;;6072993;23;92600;-89
2023/11/16 11:24:00;;;;;;;7.97;2.13;;;21.80;58.10;;;;;;6089474;23;92008;-90
2023/11/16 11:26:50;;;;;;;8.43;2.42;;;21.80;57.90;;;;;;6090715;23;92265;-91
2023/11/16 11:29:17;;;;;;;6.57;2.05;;;21.90;58.40;;;;;;6061413;23;95161;-87
2023/11/16 11:31:43;;;;;;;11.52;2.25;;;21.90;58.00;;;;;;6082772;23;92366;-88
2023/11/16 11:34:11;;;;;;;6.82;1.73;;;21.90;57.70;;;;;;6085215;23;92616;-87
2023/11/16 11:36:38;;;;;;;7.72;2.63;;;21.90;58.00;;;;;;6082797;23;92172;-90
2023/11/16 11:39:04;;;;;;;5.45;2.10;;;21.90;58.00;;;;;;6081178;23;94104;-90
2023/11/16 11:41:30;;;;;;;11.75;2.50;;;21.90;58.10;;;;;;6084183;23;94272;-89
2023/11/16 11:44:06;;;;;;;5.55;1.90;;;21.90;58.30;;;;;;6083518;23;92730;-87
2023/11/16 11:46:33;;;;;;;8.77;2.40;;;21.90;58.30;;;;;;6081954;23;92646;-89
2023/11/16 11:49:00;;;;;;;8.88;2.22;;;21.90;58.40;;;;;;6081813;23;93065;-89
2023/11/16 11:51:29;;;;;;;9.40;2.30;;;21.90;58.30;;;;;;6082501;23;93044;-89
2023/11/16 11:53:58;;;;;;;8.68;2.25;;;21.90;58.30;;;;;;6058129;23;92877;-89
2023/11/16 11:56:33;;;;;;;5.50;2.10;;;21.90;58.40;;;;;;6055085;23;91328;-89
2023/11/16 11:58:58;;;;;;;8.43;1.92;;;21.90;58.20;;;;;;6082279;23;92796;-89
2023/11/16 12:01:26;;;;;;;6.13;2.22;;;21.90;58.00;;;;;;6083824;23;93276;-90
2023/11/16 12:03:55;;;;;;;12.00;2.50;;;21.90;57.90;;;;;;6080956;23;92948;-89
2023/11/16 12:06:20;;;;;;;2.92;1.67;;;21.90;58.30;;;;;;6043174;23;92394;-89
2023/11/16 12:08:49;;;;;;;12.57;2.38;;;21.90;58.30;;;;;;6052858;23;94229;-89
2023/11/16 12:11:18;;;;;;;8.77;2.15;;;21.90;58.10;;;;;;6054531;23;95816;-92
2023/11/16 12:13:49;;;;;;;11.57;2.47;;;21.90;58.10;;;;;;6057128;23;91936;-89
2023/11/16 12:16:16;;;;;;;10.05;2.25;;;21.90;58.10;;;;;;6082708;23;92360;-86
2023/11/16 12:18:48;;;;;;;10.45;2.50;;;21.90;58.40;;;;;;6067491;23;92481;-86
2023/11/16 12:21:31;;;;;;;37.15;17.52;;;21.90;58.10;;;;;;6083148;23;92197;-87
2023/11/16 12:23:58;;;;;;;35.67;15.77;;;21.90;57.70;;;;;;6055976;23;92381;-87
2023/11/16 12:26:28;;;;;;;45.97;24.70;;;21.90;57.30;;;;;;6072406;23;92516;-88
2023/11/16 12:28:55;;;;;;;28.38;17.13;;;21.90;55.40;;;;;;6041379;23;96137;-87
2023/11/16 12:31:21;;;;;;;25.10;14.45;;;21.90;54.50;;;;;;6073743;23;94151;-87
2023/11/16 12:33:49;;;;;;;20.98;11.07;;;21.90;54.30;;;;;;6070263;23;92934;-88
2023/11/16 12:36:32;;;;;;;19.27;9.52;;;21.90;53.50;;;;;;6045635;23;93036;-87
2023/11/16 12:38:58;;;;;;;15.55;9.48;;;21.90;53.30;;;;;;6045102;23;95564;-89
2023/11/16 12:41:24;;;;;;;16.50;8.95;;;21.90;52.80;;;;;;6045703;23;95598;-87
2023/11/16 12:44:00;;;;;;;20.98;8.57;;;21.80;52.60;;;;;;6045206;23;92302;-88
2023/11/16 12:46:25;;;;;;;17.27;8.60;;;21.80;52.80;;;;;;6050318;23;91690;-88
2023/11/16 12:48:51;;;;;;;17.27;7.75;;;21.80;52.50;;;;;;6046962;23;95795;-90
2023/11/16 12:51:19;;;;;;;13.68;7.38;;;21.90;52.30;;;;;;6046095;23;95552;-88
2023/11/16 12:53:44;;;;;;;14.35;7.03;;;21.80;53.50;;;;;;6046195;23;93529;-88
2023/11/16 12:56:11;;;;;;;13.73;7.43;;;21.80;52.70;;;;;;6045426;23;92649;-89
2023/11/16 12:58:38;;;;;;;12.52;6.72;;;21.80;53.80;;;;;;6048021;23;95445;-88